Time;durP1;ratioP1;P1;durP2;ratioP2;P2;SDS_P1;SDS_P2;PMS_P1;PMS_P2;Temp;Humidity;BMP_temperature;BMP_pressure;BME280_temperature;BME280_humidity;BME280_pressure;Samples;Min_cycle;Max_cycle;Signal;HPM_P1;HPM_P2
2022/12/03 00:00:06;;;;;;;;;;;4.80;96.00;;;;;;5067464;28;19963;-71
2022/12/03 00:02:31;;;;;;;;;;;4.80;95.90;;;;;;5056749;28;19920;-71
2022/12/03 00:04:57;;;;;;;;;;;4.80;96.00;;;;;;5048274;28;20577;-71
2022/12/03 00:07:22;;;;;;;;;;;4.80;95.90;;;;;;5048258;28;19917;-71
2022/12/03 00:09:48;;;;;;;;;;;4.80;95.90;;;;;;5063139;28;19923;-72
2022/12/03 00:12:13;;;;;;;;;;;4.80;95.90;;;;;;5087544;28;19927;-71
2022/12/03 00:14:39;;;;;;;;;;;4.70;95.90;;;;;;5087462;28;19962;-71
2022/12/03 00:17:04;;;;;;;;;;;4.70;95.90;;;;;;5086552;28;19957;-72
2022/12/03 00:19:30;;;;;;;;;;;4.70;95.90;;;;;;5087374;28;19912;-71
2022/12/03 00:21:55;;;;;;;;;;;4.70;95.90;;;;;;5086587;28;20386;-72
2022/12/03 00:24:21;;;;;;;;;;;4.80;95.90;;;;;;5076259;28;19916;-71
2022/12/03 00:26:46;;;;;;;;;;;4.70;95.90;;;;;;5067116;28;20023;-71
2022/12/03 00:29:12;;;;;;;;;;;4.80;95.90;;;;;;5067514;28;19913;-72
2022/12/03 00:31:37;;;;;;;;;;;4.70;95.90;;;;;;5072038;28;19919;-71
2022/12/03 00:34:05;;;;;;;;;;;4.70;95.90;;;;;;5054216;28;19908;-71
2022/12/03 00:36:31;;;;;;;;;;;4.70;95.90;;;;;;5067027;28;20331;-71
2022/12/03 00:38:56;;;;;;;;;;;4.80;95.90;;;;;;5066170;28;19970;-71
2022/12/03 00:41:22;;;;;;;;;;;4.70;95.90;;;;;;5083916;28;19955;-71
2022/12/03 00:43:47;;;;;;;;;;;4.70;95.90;;;;;;5087606;28;19977;-71
2022/12/03 00:46:13;;;;;;;;;;;4.70;95.90;;;;;;5087653;28;19908;-72
2022/12/03 00:48:38;;;;;;;;;;;4.70;95.90;;;;;;5087951;28;19915;-72
2022/12/03 00:51:04;;;;;;;;;;;4.70;96.20;;;;;;5087191;28;19912;-71
2022/12/03 00:53:29;;;;;;;;;;;4.70;95.90;;;;;;5087324;28;19939;-71
2022/12/03 00:55:55;;;;;;;;;;;4.70;95.90;;;;;;5085482;28;20351;-71
2022/12/03 00:58:20;;;;;;;;;;;4.70;95.90;;;;;;5087575;28;19912;-71
2022/12/03 01:00:45;;;;;;;;;;;4.70;95.90;;;;;;5075268;28;20455;-72
2022/12/03 01:03:11;;;;;;;;;;;4.70;95.90;;;;;;5067370;28;20109;-71
2022/12/03 01:05:36;;;;;;;;;;;4.70;95.90;;;;;;5067168;28;19965;-72
2022/12/03 01:08:02;;;;;;;;;;;4.70;95.90;;;;;;5062194;28;19986;-71
2022/12/03 01:10:28;;;;;;;;;;;4.70;95.90;;;;;;5046392;28;19909;-71
2022/12/03 01:12:53;;;;;;;;;;;4.70;95.90;;;;;;5053584;28;20360;-72
2022/12/03 01:15:18;;;;;;;;;;;4.70;95.90;;;;;;5066904;28;19917;-73
2022/12/03 01:17:44;;;;;;;;;;;4.70;95.90;;;;;;5065684;28;20331;-72
2022/12/03 01:20:10;;;;;;;;;;;4.70;95.90;;;;;;5066513;28;19908;-72
2022/12/03 01:22:36;;;;;;;;;;;4.70;95.90;;;;;;5064699;28;19924;-72
2022/12/03 01:25:02;;;;;;;;;;;4.70;95.90;;;;;;5065992;28;19913;-73
2022/12/03 01:27:27;;;;;;;;;;;4.70;95.90;;;;;;5065939;28;19916;-71
2022/12/03 01:29:52;;;;;;;;;;;4.70;95.80;;;;;;5066853;28;19923;-71
2022/12/03 01:32:18;;;;;;;;;;;4.70;95.90;;;;;;5058474;28;20647;-72
2022/12/03 01:34:47;;;;;;;;;;;4.70;95.80;;;;;;5046756;28;19919;-72
2022/12/03 01:37:13;;;;;;;;;;;4.70;95.80;;;;;;5047014;28;20012;-72
2022/12/03 01:39:38;;;;;;;;;;;4.70;95.90;;;;;;5046344;28;20003;-72
2022/12/03 01:42:05;;;;;;;;;;;4.70;96.00;;;;;;5046744;28;20370;-72
2022/12/03 01:44:32;;;;;;;;;;;4.70;95.90;;;;;;5046027;28;19946;-72
2022/12/03 01:46:59;;;;;;;;;;;4.70;95.90;;;;;;5064337;28;19916;-72
2022/12/03 01:49:27;;;;;;;;;;;4.70;95.90;;;;;;5086515;28;19920;-72
2022/12/03 01:51:53;;;;;;;;;;;4.70;95.90;;;;;;5086974;28;20288;-72
2022/12/03 01:54:21;;;;;;;;;;;4.70;95.80;;;;;;5087066;28;19912;-72
2022/12/03 01:56:46;;;;;;;;;;;4.70;95.80;;;;;;5063984;28;19968;-72
2022/12/03 01:59:20;;;;;;;;;;;4.70;95.80;;;;;;5066326;28;19958;-72
2022/12/03 02:01:46;;;;;;;;;;;4.70;95.90;;;;;;5066192;28;19938;-72
2022/12/03 02:04:15;;;;;;;;;;;4.70;95.80;;;;;;5067110;28;20393;-72
2022/12/03 02:06:44;;;;;;;;;;;4.70;95.80;;;;;;5066834;28;19948;-72
2022/12/03 02:09:10;;;;;;;;;;;4.70;95.80;;;;;;5065034;28;19912;-72
2022/12/03 02:11:38;;;;;;;;;;;4.70;95.80;;;;;;5066398;28;19965;-72
2022/12/03 02:14:09;;;;;;;;;;;4.70;95.80;;;;;;5066724;28;19912;-72
2022/12/03 02:16:35;;;;;;;;;;;4.70;95.80;;;;;;5066264;28;19916;-72
2022/12/03 02:19:01;;;;;;;;;;;4.70;95.80;;;;;;5068567;28;21165;-72
2022/12/03 02:21:34;;;;;;;;;;;4.70;95.80;;;;;;5086640;28;19912;-72
2022/12/03 02:24:15;;;;;;;;;;;4.70;95.80;;;;;;5087215;28;19913;-72
2022/12/03 02:26:40;;;;;;;;;;;4.70;95.80;;;;;;5078446;28;19909;-72
2022/12/03 02:29:06;;;;;;;;;;;4.70;95.80;;;;;;5066152;28;19990;-72
2022/12/03 02:31:31;;;;;;;;;;;4.70;95.80;;;;;;5063986;28;19912;-72
2022/12/03 02:33:57;;;;;;;;;;;4.70;95.80;;;;;;5057621;28;19991;-72
2022/12/03 02:36:23;;;;;;;;;;;4.70;95.80;;;;;;5077096;28;19916;-72
2022/12/03 02:38:49;;;;;;;;;;;4.70;95.80;;;;;;5079324;28;20289;-72
2022/12/03 02:42:33;;;;;;;;;;;4.70;95.80;;;;;;5068131;28;19913;-72
2022/12/03 02:44:02;;;;;;;;;;;4.70;95.80;;;;;;5069440;28;20651;-72
2022/12/03 02:46:28;;;;;;;;;;;4.70;95.80;;;;;;5068848;28;19956;-72
2022/12/03 02:48:53;;;;;;;;;;;4.70;95.80;;;;;;5071078;28;19932;-72
2022/12/03 02:51:19;;;;;;;;;;;4.70;95.80;;;;;;5069173;28;20305;-72
2022/12/03 02:53:47;;;;;;;;;;;4.70;95.80;;;;;;5070389;28;19920;-72
2022/12/03 02:56:17;;;;;;;;;;;4.70;95.80;;;;;;5069636;28;19916;-72
2022/12/03 02:58:44;;;;;;;;;;;4.70;95.70;;;;;;5068347;28;20274;-72
2022/12/03 03:01:09;;;;;;;;;;;4.70;95.80;;;;;;5067793;28;20322;-72
2022/12/03 03:03:36;;;;;;;;;;;4.70;95.80;;;;;;5066823;28;20015;-72
2022/12/03 03:06:02;;;;;;;;;;;4.70;95.80;;;;;;5089688;28;19938;-72
2022/12/03 03:08:28;;;;;;;;;;;4.60;95.80;;;;;;5080998;28;20552;-72
2022/12/03 03:10:54;;;;;;;;;;;4.60;95.70;;;;;;5068861;28;20556;-72
2022/12/03 03:13:20;;;;;;;;;;;4.70;95.80;;;;;;5069125;28;19919;-72
2022/12/03 03:15:45;;;;;;;;;;;4.60;95.70;;;;;;5069089;28;19921;-72
2022/12/03 03:18:12;;;;;;;;;;;4.70;95.70;;;;;;5069220;28;19944;-72
2022/12/03 03:20:38;;;;;;;;;;;4.60;95.70;;;;;;5070097;28;20286;-71
2022/12/03 03:23:05;;;;;;;;;;;4.60;95.70;;;;;;5062166;28;20011;-72
2022/12/03 03:25:30;;;;;;;;;;;4.60;95.70;;;;;;5065995;28;20250;-72
2022/12/03 03:27:56;;;;;;;;;;;4.60;95.70;;;;;;5068281;28;19919;-72
2022/12/03 03:30:21;;;;;;;;;;;4.60;95.70;;;;;;5067330;28;19913;-72
2022/12/03 03:32:47;;;;;;;;;;;4.60;95.70;;;;;;5068912;28;20001;-72
2022/12/03 03:35:13;;;;;;;;;;;4.60;96.00;;;;;;5068785;28;19920;-72
2022/12/03 03:37:39;;;;;;;;;;;4.60;95.70;;;;;;5079013;28;19916;-72
2022/12/03 03:40:05;;;;;;;;;;;4.60;95.70;;;;;;5068289;28;19913;-72
2022/12/03 03:42:30;;;;;;;;;;;4.60;95.70;;;;;;5068910;28;19919;-72
2022/12/03 03:44:57;;;;;;;;;;;4.60;95.70;;;;;;5068009;28;19913;-72
2022/12/03 03:47:22;;;;;;;;;;;4.60;95.70;;;;;;5068838;28;19987;-72
2022/12/03 03:49:49;;;;;;;;;;;4.60;95.70;;;;;;5067862;28;19934;-72
2022/12/03 03:52:15;;;;;;;;;;;4.60;95.70;;;;;;5068739;28;19966;-72
2022/12/03 03:54:41;;;;;;;;;;;4.60;95.70;;;;;;5086159;28;20718;-72
2022/12/03 03:57:07;;;;;;;;;;;4.60;95.70;;;;;;5063398;28;19999;-72
2022/12/03 03:59:32;;;;;;;;;;;4.60;95.70;;;;;;5068138;28;19923;-73
2022/12/03 04:01:57;;;;;;;;;;;4.60;95.70;;;;;;5062878;28;19912;-72
2022/12/03 04:04:25;;;;;;;;;;;4.60;95.70;;;;;;5046856;28;20329;-72
2022/12/03 04:06:50;;;;;;;;;;;4.60;95.70;;;;;;5048379;28;20405;-73
2022/12/03 04:09:16;;;;;;;;;;;4.60;95.70;;;;;;5050637;28;19956;-72
2022/12/03 04:14:25;;;;;;;;;;;4.60;95.70;;;;;;5087413;28;20638;-72
2022/12/03 04:16:51;;;;;;;;;;;4.50;95.70;;;;;;5088236;28;19916;-72
2022/12/03 04:19:16;;;;;;;;;;;4.60;95.60;;;;;;5088054;28;19912;-72
2022/12/03 04:24:26;;;;;;;;;;;4.60;95.70;;;;;;5088516;28;19919;-72
2022/12/03 04:29:35;;;;;;;;;;;4.60;95.70;;;;;;5066220;28;19931;-72
2022/12/03 04:37:29;;;;;;;;;;;4.50;95.70;;;;;;5067473;28;19923;-72
2022/12/03 04:39:55;;;;;;;;;;;4.50;95.70;;;;;;5065896;28;19913;-72
2022/12/03 04:42:20;;;;;;;;;;;4.60;95.70;;;;;;5067779;28;20396;-72
2022/12/03 04:44:45;;;;;;;;;;;4.60;95.70;;;;;;5075542;28;19942;-72
2022/12/03 04:47:13;;;;;;;;;;;4.60;95.60;;;;;;5067428;28;19939;-72
2022/12/03 04:49:40;;;;;;;;;;;4.60;95.70;;;;;;5065877;28;19924;-72
2022/12/03 04:52:05;;;;;;;;;;;4.50;95.70;;;;;;5067645;28;19936;-72
2022/12/03 04:54:31;;;;;;;;;;;4.60;95.70;;;;;;5067439;28;19989;-72
2022/12/03 04:56:57;;;;;;;;;;;4.50;95.70;;;;;;5066604;28;19924;-72
2022/12/03 04:59:22;;;;;;;;;;;4.60;95.70;;;;;;5066186;28;19908;-72
2022/12/03 05:01:48;;;;;;;;;;;4.50;95.60;;;;;;5067718;28;19909;-72
2022/12/03 05:04:14;;;;;;;;;;;4.50;95.60;;;;;;5067838;28;19916;-72
2022/12/03 05:06:39;;;;;;;;;;;4.50;95.60;;;;;;5067096;28;19936;-72
2022/12/03 05:09:05;;;;;;;;;;;4.50;95.60;;;;;;5054082;28;20524;-72
2022/12/03 05:11:30;;;;;;;;;;;4.50;95.60;;;;;;5046836;28;20677;-72
2022/12/03 05:13:56;;;;;;;;;;;4.50;95.60;;;;;;5047310;28;19920;-72
2022/12/03 05:16:21;;;;;;;;;;;4.50;95.60;;;;;;5054680;28;19920;-72
2022/12/03 05:18:47;;;;;;;;;;;4.50;95.60;;;;;;5067051;28;19966;-72
2022/12/03 05:21:12;;;;;;;;;;;4.50;95.60;;;;;;5060023;28;19916;-72
2022/12/03 05:23:38;;;;;;;;;;;4.50;95.60;;;;;;5064717;28;19969;-72
2022/12/03 05:26:03;;;;;;;;;;;4.50;95.60;;;;;;5066653;28;20015;-72
2022/12/03 05:28:29;;;;;;;;;;;4.50;95.60;;;;;;5066530;28;19957;-72
2022/12/03 05:30:54;;;;;;;;;;;4.50;95.60;;;;;;5066258;28;20001;-72
2022/12/03 05:33:20;;;;;;;;;;;4.50;95.60;;;;;;5069768;28;19958;-72
2022/12/03 05:35:45;;;;;;;;;;;4.50;95.60;;;;;;5064738;28;19951;-72
2022/12/03 05:38:11;;;;;;;;;;;4.50;95.60;;;;;;5064692;28;19919;-72
2022/12/03 05:40:36;;;;;;;;;;;4.50;95.60;;;;;;5065830;28;19928;-72
2022/12/03 05:43:02;;;;;;;;;;;4.50;95.60;;;;;;5066827;28;19981;-72
2022/12/03 05:45:28;;;;;;;;;;;4.50;95.60;;;;;;5066506;28;19962;-72
2022/12/03 05:47:54;;;;;;;;;;;4.50;95.60;;;;;;5066448;28;20662;-72
2022/12/03 05:50:20;;;;;;;;;;;4.50;95.60;;;;;;5066263;28;19917;-72
2022/12/03 05:52:46;;;;;;;;;;;4.50;95.60;;;;;;5066304;28;20017;-72
2022/12/03 05:55:11;;;;;;;;;;;4.50;95.60;;;;;;5065645;28;20373;-72
2022/12/03 05:57:37;;;;;;;;;;;4.50;95.50;;;;;;5065834;28;19916;-72
2022/12/03 06:00:08;;;;;;;;;;;4.50;95.60;;;;;;5066074;28;19909;-72
2022/12/03 06:02:34;;;;;;;;;;;4.50;95.60;;;;;;5056392;28;19963;-72
2022/12/03 06:04:59;;;;;;;;;;;4.40;95.50;;;;;;5046936;28;19916;-72
2022/12/03 06:07:25;;;;;;;;;;;4.50;95.60;;;;;;5068048;28;19927;-72
2022/12/03 06:09:50;;;;;;;;;;;4.50;95.60;;;;;;5050174;28;19913;-72
2022/12/03 06:12:16;;;;;;;;;;;4.50;95.60;;;;;;5050089;28;19920;-72
2022/12/03 06:14:41;;;;;;;;;;;4.50;95.60;;;;;;5049442;28;20603;-72
2022/12/03 06:17:07;;;;;;;;;;;4.50;95.60;;;;;;5050346;28;19917;-72
2022/12/03 06:19:32;;;;;;;;;;;4.50;95.50;;;;;;5064028;28;20009;-72
2022/12/03 06:21:58;;;;;;;;;;;4.50;95.60;;;;;;5070158;28;19955;-72
2022/12/03 06:24:23;;;;;;;;;;;4.50;95.50;;;;;;5070415;28;19916;-72
2022/12/03 06:26:49;;;;;;;;;;;4.50;95.60;;;;;;5066258;28;19916;-72
2022/12/03 06:29:14;;;;;;;;;;;4.50;95.50;;;;;;5065187;28;19923;-72
2022/12/03 06:31:40;;;;;;;;;;;4.50;95.50;;;;;;5067530;28;19912;-72
2022/12/03 06:34:05;;;;;;;;;;;4.50;95.50;;;;;;5069311;28;19990;-72
2022/12/03 06:36:31;;;;;;;;;;;4.50;95.50;;;;;;5068929;28;19916;-72
2022/12/03 06:38:56;;;;;;;;;;;4.40;95.50;;;;;;5065409;28;19943;-72
2022/12/03 06:41:22;;;;;;;;;;;4.40;95.50;;;;;;5068939;28;20358;-72
2022/12/03 06:43:47;;;;;;;;;;;4.40;95.50;;;;;;5069281;28;19909;-72
2022/12/03 06:46:13;;;;;;;;;;;4.40;95.50;;;;;;5069161;28;20432;-72
2022/12/03 06:48:38;;;;;;;;;;;4.40;95.50;;;;;;5067071;28;20368;-72
2022/12/03 06:51:04;;;;;;;;;;;4.40;95.50;;;;;;5068605;28;19913;-72
2022/12/03 06:53:29;;;;;;;;;;;4.40;95.50;;;;;;5069125;28;19917;-72
2022/12/03 06:55:55;;;;;;;;;;;4.40;95.50;;;;;;5070270;28;20077;-72
2022/12/03 06:58:21;;;;;;;;;;;4.40;95.50;;;;;;5089022;28;19912;-72
2022/12/03 07:00:46;;;;;;;;;;;4.40;95.50;;;;;;5075394;28;19919;-72
2022/12/03 07:03:11;;;;;;;;;;;4.40;95.50;;;;;;5068837;28;19950;-72
2022/12/03 07:05:37;;;;;;;;;;;4.40;95.50;;;;;;5067039;28;19908;-72
2022/12/03 07:08:03;;;;;;;;;;;4.40;95.50;;;;;;5064400;28;19912;-72
2022/12/03 07:10:28;;;;;;;;;;;4.40;95.50;;;;;;5047881;28;19916;-72
2022/12/03 07:12:54;;;;;;;;;;;4.40;95.50;;;;;;5054013;28;19927;-72
2022/12/03 07:15:19;;;;;;;;;;;4.40;95.40;;;;;;5068565;28;20269;-72
2022/12/03 07:17:45;;;;;;;;;;;4.40;95.60;;;;;;5068760;28;20369;-72
2022/12/03 07:20:10;;;;;;;;;;;4.40;95.40;;;;;;5060359;28;19912;-72
2022/12/03 07:22:36;;;;;;;;;;;4.40;95.40;;;;;;5075786;28;19962;-72
2022/12/03 07:25:01;;;;;;;;;;;4.40;95.50;;;;;;5088424;28;20440;-72
2022/12/03 07:27:27;;;;;;;;;;;4.40;95.50;;;;;;5073593;28;19912;-72
2022/12/03 07:29:52;;;;;;;;;;;4.40;95.50;;;;;;5066552;28;19908;-72
2022/12/03 07:32:18;;;;;;;;;;;4.40;95.40;;;;;;5060355;28;19935;-72
2022/12/03 07:34:43;;;;;;;;;;;4.40;95.40;;;;;;5048325;28;19916;-72
2022/12/03 07:37:09;;;;;;;;;;;4.40;95.40;;;;;;5069381;28;20022;-72
2022/12/03 07:39:34;;;;;;;;;;;4.40;95.40;;;;;;5067084;28;19918;-72
2022/12/03 07:42:00;;;;;;;;;;;4.40;95.40;;;;;;5067956;28;19920;-72
2022/12/03 07:44:26;;;;;;;;;;;4.40;95.40;;;;;;5067505;28;19916;-72
2022/12/03 07:46:51;;;;;;;;;;;4.40;95.40;;;;;;5067515;28;20512;-72
2022/12/03 07:49:17;;;;;;;;;;;4.40;95.40;;;;;;5065638;28;19912;-72
2022/12/03 07:51:44;;;;;;;;;;;4.40;95.40;;;;;;5066442;28;19916;-72
2022/12/03 07:54:10;;;;;;;;;;;4.40;95.40;;;;;;5068369;28;19917;-72
2022/12/03 07:56:35;;;;;;;;;;;4.40;95.40;;;;;;5067751;28;19924;-72
2022/12/03 07:59:01;;;;;;;;;;;4.40;95.40;;;;;;5067906;28;20497;-72
2022/12/03 08:01:26;;;;;;;;;;;4.40;95.30;;;;;;5067827;28;20455;-72
2022/12/03 08:03:52;;;;;;;;;;;4.40;95.40;;;;;;5065806;28;19916;-72
2022/12/03 08:06:17;;;;;;;;;;;4.40;95.40;;;;;;5066996;28;20570;-72
2022/12/03 08:08:43;;;;;;;;;;;4.40;95.40;;;;;;5074694;28;20647;-72
2022/12/03 08:11:13;;;;;;;;;;;4.40;95.30;;;;;;5067027;28;19967;-72
2022/12/03 08:13:39;;;;;;;;;;;4.50;95.30;;;;;;5063305;28;19913;-72
2022/12/03 08:16:10;;;;;;;;;;;4.40;95.30;;;;;;5048267;28;19927;-72
2022/12/03 08:18:36;;;;;;;;;;;4.50;95.30;;;;;;5059382;28;19923;-72
2022/12/03 08:21:01;;;;;;;;;;;4.40;95.30;;;;;;5067601;28;20282;-72
2022/12/03 08:23:27;;;;;;;;;;;4.40;95.30;;;;;;5068631;28;19987;-72
2022/12/03 08:25:52;;;;;;;;;;;4.40;95.30;;;;;;5068095;28;19920;-72
2022/12/03 08:28:19;;;;;;;;;;;4.50;95.30;;;;;;5067478;28;20495;-72
2022/12/03 08:31:08;;;;;;;;;;;4.50;95.20;;;;;;5067366;28;19913;-72
2022/12/03 08:33:34;;;;;;;;;;;4.50;95.20;;;;;;5067491;28;19940;-72
2022/12/03 08:36:09;;;;;;;;;;;4.50;95.20;;;;;;5067779;28;19955;-72
2022/12/03 08:38:35;;;;;;;;;;;4.50;95.20;;;;;;5053350;28;20325;-72
2022/12/03 08:41:00;;;;;;;;;;;4.50;95.20;;;;;;5066859;28;19959;-72
2022/12/03 08:43:27;;;;;;;;;;;4.50;95.20;;;;;;5067963;28;19995;-72
2022/12/03 08:45:56;;;;;;;;;;;4.50;95.20;;;;;;5067418;28;20385;-72
2022/12/03 08:48:27;;;;;;;;;;;4.50;95.20;;;;;;5068131;28;19920;-72
2022/12/03 08:50:54;;;;;;;;;;;4.50;95.20;;;;;;5067519;28;19962;-72
2022/12/03 08:53:23;;;;;;;;;;;4.50;95.20;;;;;;5068225;28;19920;-72
2022/12/03 08:55:52;;;;;;;;;;;4.50;95.20;;;;;;5068029;28;19939;-72
2022/12/03 08:58:33;;;;;;;;;;;4.50;95.20;;;;;;5060312;28;19920;-72
2022/12/03 09:01:02;;;;;;;;;;;4.50;95.20;;;;;;5071908;28;19916;-72
2022/12/03 09:03:29;;;;;;;;;;;4.50;95.10;;;;;;5051988;28;20013;-72
2022/12/03 09:05:54;;;;;;;;;;;4.50;95.10;;;;;;5047392;28;19913;-72
2022/12/03 09:08:20;;;;;;;;;;;4.60;95.10;;;;;;5047532;28;19920;-72
2022/12/03 09:10:45;;;;;;;;;;;4.50;95.10;;;;;;5046737;28;20508;-72
2022/12/03 09:13:11;;;;;;;;;;;4.60;95.10;;;;;;5046117;28;19913;-72
2022/12/03 09:15:36;;;;;;;;;;;4.60;95.10;;;;;;5047073;28;19939;-72
2022/12/03 09:18:02;;;;;;;;;;;4.60;95.10;;;;;;5057455;28;19923;-72
2022/12/03 09:20:27;;;;;;;;;;;4.60;95.10;;;;;;5067166;28;20380;-72
2022/12/03 09:22:52;;;;;;;;;;;4.60;95.10;;;;;;5067132;28;19912;-72
2022/12/03 09:25:18;;;;;;;;;;;4.60;95.10;;;;;;5067122;28;19908;-73
2022/12/03 09:27:43;;;;;;;;;;;4.60;95.10;;;;;;5066873;28;19908;-72
2022/12/03 09:30:09;;;;;;;;;;;4.60;95.10;;;;;;5066663;28;19913;-72
2022/12/03 09:32:35;;;;;;;;;;;4.60;95.00;;;;;;5056494;28;19913;-72
2022/12/03 09:35:00;;;;;;;;;;;4.70;95.30;;;;;;5063074;28;19920;-72
2022/12/03 09:37:26;;;;;;;;;;;4.70;95.00;;;;;;5087122;28;19989;-72
2022/12/03 09:39:51;;;;;;;;;;;4.70;95.00;;;;;;5066372;28;19916;-72
2022/12/03 09:42:17;;;;;;;;;;;4.70;95.00;;;;;;5067182;28;20284;-72
2022/12/03 09:44:42;;;;;;;;;;;4.70;95.00;;;;;;5072678;28;19918;-72
2022/12/03 09:47:08;;;;;;;;;;;4.70;94.90;;;;;;5069353;28;19909;-72
2022/12/03 09:49:35;;;;;;;;;;;4.70;94.90;;;;;;5071321;28;20007;-72
2022/12/03 09:52:02;;;;;;;;;;;4.80;94.90;;;;;;5073707;28;19917;-71
2022/12/03 09:54:29;;;;;;;;;;;4.80;94.90;;;;;;5073313;28;19912;-71
2022/12/03 09:56:55;;;;;;;;;;;4.80;94.90;;;;;;5073078;28;19916;-72
2022/12/03 09:59:22;;;;;;;;;;;4.80;94.80;;;;;;5073069;28;19912;-72
2022/12/03 10:01:47;;;;;;;;;;;4.80;94.80;;;;;;5074100;28;19921;-72
2022/12/03 10:04:13;;;;;;;;;;;4.80;94.80;;;;;;5067458;28;20411;-72
2022/12/03 10:06:38;;;;;;;;;;;4.80;94.80;;;;;;5072979;28;20277;-71
2022/12/03 10:09:05;;;;;;;;;;;4.80;94.80;;;;;;5060232;28;20377;-72
2022/12/03 10:11:31;;;;;;;;;;;4.80;94.80;;;;;;5052827;28;20590;-72
2022/12/03 10:13:57;;;;;;;;;;;4.80;94.80;;;;;;5053146;28;20011;-72
2022/12/03 10:16:23;;;;;;;;;;;4.90;94.90;;;;;;5066660;28;19999;-71
2022/12/03 10:18:50;;;;;;;;;;;4.80;94.80;;;;;;5072635;28;19909;-73
2022/12/03 10:21:21;;;;;;;;;;;4.90;94.90;;;;;;5072574;28;19916;-73
2022/12/03 10:23:49;;;;;;;;;;;4.80;94.90;;;;;;5072859;28;20008;-73
2022/12/03 10:26:15;;;;;;;;;;;4.80;94.90;;;;;;5071422;28;19920;-72
2022/12/03 10:28:42;;;;;;;;;;;4.90;94.90;;;;;;5071850;28;19962;-73
2022/12/03 10:31:09;;;;;;;;;;;4.80;94.80;;;;;;5072772;28;19940;-72
2022/12/03 10:33:35;;;;;;;;;;;4.90;94.80;;;;;;5054207;28;19939;-72
2022/12/03 10:36:15;;;;;;;;;;;4.90;94.80;;;;;;5052702;28;20003;-72
2022/12/03 10:38:41;;;;;;;;;;;4.90;94.80;;;;;;5052933;28;19920;-72
2022/12/03 10:41:20;;;;;;;;;;;4.90;94.80;;;;;;5052356;28;19920;-72
2022/12/03 10:43:45;;;;;;;;;;;4.90;94.80;;;;;;5072833;28;19920;-72
2022/12/03 10:46:15;;;;;;;;;;;4.90;94.80;;;;;;5072849;28;19951;-72
2022/12/03 10:48:41;;;;;;;;;;;4.90;94.80;;;;;;5077257;28;19954;-72
2022/12/03 10:51:19;;;;;;;;;;;4.90;94.80;;;;;;5074226;28;19943;-72
2022/12/03 10:53:46;;;;;;;;;;;4.90;94.80;;;;;;5072144;28;20029;-72
2022/12/03 10:56:14;;;;;;;;;;;4.90;94.80;;;;;;5069936;28;19948;-72
2022/12/03 10:58:40;;;;;;;;;;;4.90;94.80;;;;;;5069402;28;20096;-72
2022/12/03 11:01:13;;;;;;;;;;;4.90;94.80;;;;;;5069245;28;19927;-72
2022/12/03 11:03:39;;;;;;;;;;;4.90;94.80;;;;;;5069323;28;19913;-72
2022/12/03 11:06:04;;;;;;;;;;;4.90;94.80;;;;;;5068569;28;19912;-72
2022/12/03 11:08:34;;;;;;;;;;;4.90;94.80;;;;;;5069223;28;19939;-72
2022/12/03 11:11:01;;;;;;;;;;;4.90;94.80;;;;;;5067029;28;20475;-72
2022/12/03 11:13:32;;;;;;;;;;;4.90;94.80;;;;;;5066279;28;19916;-72
2022/12/03 11:15:59;;;;;;;;;;;4.90;94.80;;;;;;5068846;28;19920;-71
2022/12/03 11:18:36;;;;;;;;;;;5.00;94.80;;;;;;5068930;28;20447;-71
2022/12/03 11:21:02;;;;;;;;;;;5.00;94.80;;;;;;5071114;28;19917;-71
2022/12/03 11:23:43;;;;;;;;;;;5.00;94.80;;;;;;5067681;28;19916;-71
2022/12/03 11:26:09;;;;;;;;;;;4.90;94.80;;;;;;5066065;28;19919;-71
2022/12/03 11:28:35;;;;;;;;;;;4.90;94.80;;;;;;5069457;28;19920;-71
2022/12/03 11:31:07;;;;;;;;;;;4.90;94.80;;;;;;5068401;28;19908;-71
2022/12/03 11:33:34;;;;;;;;;;;5.00;94.80;;;;;;5067253;28;20526;-71
2022/12/03 11:36:03;;;;;;;;;;;4.90;94.80;;;;;;5067243;28;19924;-71
2022/12/03 11:38:39;;;;;;;;;;;5.00;94.70;;;;;;5070059;28;19916;-71
2022/12/03 11:41:12;;;;;;;;;;;5.00;94.70;;;;;;5067751;28;19993;-71
2022/12/03 11:43:56;;;;;;;;;;;4.90;94.80;;;;;;5067004;28;20308;-71
2022/12/03 11:46:26;;;;;;;;;;;4.90;94.70;;;;;;5067310;28;20598;-71
2022/12/03 11:48:54;;;;;;;;;;;5.00;94.70;;;;;;5067838;28;19912;-71
2022/12/03 11:51:24;;;;;;;;;;;5.00;94.80;;;;;;5067429;28;19916;-71
2022/12/03 11:53:51;;;;;;;;;;;5.00;94.80;;;;;;5065972;28;20011;-71
2022/12/03 11:56:17;;;;;;;;;;;5.00;94.70;;;;;;5067952;28;19923;-71
2022/12/03 11:58:44;;;;;;;;;;;5.00;94.70;;;;;;5068285;28;19913;-71
2022/12/03 12:01:10;;;;;;;;;;;5.00;94.70;;;;;;5067674;28;20000;-71
2022/12/03 12:03:46;;;;;;;;;;;5.00;94.90;;;;;;5068429;28;20611;-71
2022/12/03 12:06:13;;;;;;;;;;;5.00;94.70;;;;;;5065201;28;19912;-71
2022/12/03 12:08:40;;;;;;;;;;;5.00;94.80;;;;;;5066352;28;19912;-71
2022/12/03 12:11:24;;;;;;;;;;;5.00;94.80;;;;;;5067518;28;19924;-71
2022/12/03 12:13:54;;;;;;;;;;;5.00;94.70;;;;;;5065199;28;19923;-71
2022/12/03 12:16:36;;;;;;;;;;;5.00;94.70;;;;;;5065978;28;20007;-71
2022/12/03 12:19:25;;;;;;;;;;;5.00;94.70;;;;;;5062378;28;19963;-71
2022/12/03 12:21:51;;;;;;;;;;;5.00;94.70;;;;;;5063296;28;19919;-71
2022/12/03 12:24:29;;;;;;;;;;;5.00;94.70;;;;;;5063932;28;19917;-71
2022/12/03 12:26:56;;;;;;;;;;;5.00;94.70;;;;;;5064211;28;20436;-71
2022/12/03 12:29:21;;;;;;;;;;;5.00;94.70;;;;;;5058447;28;19921;-71
2022/12/03 12:31:48;;;;;;;;;;;5.00;94.70;;;;;;5065183;28;20315;-71
2022/12/03 12:34:13;;;;;;;;;;;5.00;94.60;;;;;;5068386;28;19912;-71
2022/12/03 12:36:39;;;;;;;;;;;5.00;94.70;;;;;;5066721;28;19912;-71
2022/12/03 12:39:11;;;;;;;;;;;5.00;94.70;;;;;;5066122;28;19920;-71
2022/12/03 12:41:37;;;;;;;;;;;5.00;94.70;;;;;;5066337;28;19912;-71
2022/12/03 12:44:08;;;;;;;;;;;5.00;94.70;;;;;;5066913;28;19918;-71
2022/12/03 12:46:33;;;;;;;;;;;5.00;94.70;;;;;;5067437;28;20273;-71
2022/12/03 12:48:59;;;;;;;;;;;5.00;94.70;;;;;;5066670;28;19913;-71
2022/12/03 12:51:24;;;;;;;;;;;5.00;94.70;;;;;;5066083;28;19939;-71
2022/12/03 12:53:52;;;;;;;;;;;5.00;94.70;;;;;;5065258;28;19951;-71
2022/12/03 12:56:25;;;;;;;;;;;5.00;94.70;;;;;;5065472;28;19999;-71
2022/12/03 12:58:51;;;;;;;;;;;5.00;94.70;;;;;;5066520;28;20638;-71
2022/12/03 13:01:24;;;;;;;;;;;5.00;94.70;;;;;;5065942;28;19916;-71
2022/12/03 13:03:50;;;;;;;;;;;5.00;94.70;;;;;;5067469;28;19920;-71
2022/12/03 13:06:16;;;;;;;;;;;5.00;94.70;;;;;;5062848;28;20335;-71
2022/12/03 13:08:43;;;;;;;;;;;5.00;94.70;;;;;;5060056;28;19920;-71
2022/12/03 13:11:19;;;;;;;;;;;5.00;94.70;;;;;;5065977;28;19926;-71
2022/12/03 13:13:44;;;;;;;;;;;5.00;94.70;;;;;;5066282;28;19920;-71
2022/12/03 13:16:12;;;;;;;;;;;5.00;94.70;;;;;;5066306;28;19912;-71
2022/12/03 13:18:40;;;;;;;;;;;5.00;94.70;;;;;;5064506;28;20756;-71
2022/12/03 13:21:21;;;;;;;;;;;5.00;94.70;;;;;;5085666;28;19920;-71
2022/12/03 13:23:47;;;;;;;;;;;5.00;94.70;;;;;;5075939;28;19913;-71
2022/12/03 13:26:32;;;;;;;;;;;5.00;94.70;;;;;;5063420;28;19917;-71
2022/12/03 13:29:00;;;;;;;;;;;5.00;94.70;;;;;;5066040;28;19955;-71
2022/12/03 13:31:27;;;;;;;;;;;5.00;94.70;;;;;;5065458;28;20597;-71
2022/12/03 13:33:54;;;;;;;;;;;5.00;94.70;;;;;;5065628;28;19920;-71
2022/12/03 13:36:21;;;;;;;;;;;5.00;94.70;;;;;;5066899;28;20615;-71
2022/12/03 13:38:46;;;;;;;;;;;5.00;94.70;;;;;;5065361;28;19916;-71
2022/12/03 13:43:58;;;;;;;;;;;5.00;94.70;;;;;;5065459;28;19919;-71
2022/12/03 13:46:23;;;;;;;;;;;5.00;94.70;;;;;;5065421;28;19912;-71
2022/12/03 13:48:49;;;;;;;;;;;5.00;94.70;;;;;;5065127;28;19912;-71
2022/12/03 13:51:33;;;;;;;;;;;5.00;94.70;;;;;;5064848;28;19912;-71
2022/12/03 13:53:59;;;;;;;;;;;5.00;94.70;;;;;;5046068;28;19970;-71
2022/12/03 13:56:29;;;;;;;;;;;5.00;94.70;;;;;;5051215;28;19920;-71
2022/12/03 13:58:56;;;;;;;;;;;5.00;94.70;;;;;;5064072;28;19912;-71
2022/12/03 14:01:21;;;;;;;;;;;5.00;94.70;;;;;;5064780;28;19912;-71
2022/12/03 14:03:47;;;;;;;;;;;4.90;94.60;;;;;;5045347;28;19943;-71
2022/12/03 14:06:13;;;;;;;;;;;5.00;94.70;;;;;;5045659;28;19916;-71
2022/12/03 14:08:38;;;;;;;;;;;5.00;94.70;;;;;;5057409;28;19970;-71
2022/12/03 14:11:04;;;;;;;;;;;5.00;94.70;;;;;;5084806;28;20388;-71
2022/12/03 14:13:29;;;;;;;;;;;5.00;94.70;;;;;;5085191;28;19920;-71
2022/12/03 14:15:55;;;;;;;;;;;5.00;94.70;;;;;;5085385;28;19916;-71
2022/12/03 14:18:20;;;;;;;;;;;5.00;94.70;;;;;;5085212;28;20413;-71
2022/12/03 14:20:47;;;;;;;;;;;4.90;94.70;;;;;;5085094;28;19912;-71
2022/12/03 14:23:12;;;;;;;;;;;4.90;94.70;;;;;;5083567;28;19959;-71
2022/12/03 14:25:38;;;;;;;;;;;4.90;94.70;;;;;;5065900;28;20548;-71
2022/12/03 14:28:07;;;;;;;;;;;4.90;94.70;;;;;;5063515;28;19912;-71
2022/12/03 14:30:33;;;;;;;;;;;4.90;94.70;;;;;;5068989;28;19913;-71
2022/12/03 14:32:59;;;;;;;;;;;4.90;94.70;;;;;;5054721;28;19908;-71
2022/12/03 14:35:24;;;;;;;;;;;4.90;94.70;;;;;;5048590;28;19916;-71
2022/12/03 14:37:50;;;;;;;;;;;4.90;94.70;;;;;;5065888;28;20555;-71
2022/12/03 14:40:15;;;;;;;;;;;4.90;94.70;;;;;;5069321;28;19952;-71
2022/12/03 14:42:41;;;;;;;;;;;4.90;94.70;;;;;;5076951;28;20746;-71
2022/12/03 14:45:06;;;;;;;;;;;4.90;94.70;;;;;;5089860;28;19952;-71